sensor_id;sensor_type;location;lat;lon;timestamp;temperature;humidity
1049;DHT22;513;51.444;7.196;2022-11-21T00:00:40;4.00;99.90
1049;DHT22;513;51.444;7.196;2022-11-21T00:03:09;4.10;99.90
1049;DHT22;513;51.444;7.196;2022-11-21T00:05:39;4.00;99.90
1049;DHT22;513;51.444;7.196;2022-11-21T00:08:07;4.00;99.90
1049;DHT22;513;51.444;7.196;2022-11-21T00:10:35;4.10;99.90
1049;DHT22;513;51.444;7.196;2022-11-21T00:13:02;4.00;99.90
1049;DHT22;513;51.444;7.196;2022-11-21T00:15:31;4.10;99.90
1049;DHT22;513;51.444;7.196;2022-11-21T00:18:01;4.00;99.90
1049;DHT22;513;51.444;7.196;2022-11-21T00:20:29;4.10;99.90
1049;DHT22;513;51.444;7.196;2022-11-21T00:22:56;4.00;99.90
1049;DHT22;513;51.444;7.196;2022-11-21T00:25:22;4.00;99.90
1049;DHT22;513;51.444;7.196;2022-11-21T00:27:49;4.00;99.90
1049;DHT22;513;51.444;7.196;2022-11-21T00:30:17;4.00;99.90
1049;DHT22;513;51.444;7.196;2022-11-21T00:32:45;3.60;99.90
1049;DHT22;513;51.444;7.196;2022-11-21T00:35:12;3.60;99.90
1049;DHT22;513;51.444;7.196;2022-11-21T00:37:39;3.40;99.90
1049;DHT22;513;51.444;7.196;2022-11-21T00:40:06;3.40;99.90
1049;DHT22;513;51.444;7.196;2022-11-21T00:42:33;3.50;99.90
1049;DHT22;513;51.444;7.196;2022-11-21T00:45:00;3.60;99.90
1049;DHT22;513;51.444;7.196;2022-11-21T00:47:27;3.60;99.90
1049;DHT22;513;51.444;7.196;2022-11-21T00:49:54;3.50;99.90
1049;DHT22;513;51.444;7.196;2022-11-21T00:52:21;3.20;99.90
1049;DHT22;513;51.444;7.196;2022-11-21T00:54:48;3.20;99.90
1049;DHT22;513;51.444;7.196;2022-11-21T00:57:14;3.30;99.90
1049;DHT22;513;51.444;7.196;2022-11-21T00:59:41;3.40;99.90
1049;DHT22;513;51.444;7.196;2022-11-21T01:02:08;3.20;99.90
1049;DHT22;513;51.444;7.196;2022-11-21T01:04:35;3.10;99.90
1049;DHT22;513;51.444;7.196;2022-11-21T01:07:03;3.10;99.90
1049;DHT22;513;51.444;7.196;2022-11-21T01:09:30;3.30;99.90
1049;DHT22;513;51.444;7.196;2022-11-21T01:11:57;3.30;99.90
1049;DHT22;513;51.444;7.196;2022-11-21T01:14:23;3.30;99.90
1049;DHT22;513;51.444;7.196;2022-11-21T01:16:50;3.50;99.90
1049;DHT22;513;51.444;7.196;2022-11-21T01:19:17;3.50;99.90
1049;DHT22;513;51.444;7.196;2022-11-21T01:21:43;3.30;99.90
1049;DHT22;513;51.444;7.196;2022-11-21T01:24:12;3.50;99.90
1049;DHT22;513;51.444;7.196;2022-11-21T01:26:38;3.70;99.90
1049;DHT22;513;51.444;7.196;2022-11-21T01:29:05;3.70;99.90
1049;DHT22;513;51.444;7.196;2022-11-21T01:31:33;3.60;99.90
1049;DHT22;513;51.444;7.196;2022-11-21T01:34:00;3.80;99.90
1049;DHT22;513;51.444;7.196;2022-11-21T01:36:28;3.90;99.90
1049;DHT22;513;51.444;7.196;2022-11-21T01:38:57;3.60;99.90
1049;DHT22;513;51.444;7.196;2022-11-21T01:41:28;3.60;99.90
1049;DHT22;513;51.444;7.196;2022-11-21T01:43:55;3.40;99.90
1049;DHT22;513;51.444;7.196;2022-11-21T01:46:23;3.50;99.90
1049;DHT22;513;51.444;7.196;2022-11-21T01:48:54;3.30;99.90
1049;DHT22;513;51.444;7.196;2022-11-21T01:51:25;3.30;99.90
1049;DHT22;513;51.444;7.196;2022-11-21T01:53:58;3.40;99.90
1049;DHT22;513;51.444;7.196;2022-11-21T01:56:28;3.40;99.90
1049;DHT22;513;51.444;7.196;2022-11-21T01:58:57;3.30;99.90
1049;DHT22;513;51.444;7.196;2022-11-21T02:01:26;3.50;99.90
1049;DHT22;513;51.444;7.196;2022-11-21T02:03:54;3.40;99.90
1049;DHT22;513;51.444;7.196;2022-11-21T02:06:22;3.30;99.90
1049;DHT22;513;51.444;7.196;2022-11-21T02:08:49;3.40;99.90
1049;DHT22;513;51.444;7.196;2022-11-21T02:11:21;3.50;99.90
1049;DHT22;513;51.444;7.196;2022-11-21T02:13:53;3.50;99.90
1049;DHT22;513;51.444;7.196;2022-11-21T02:16:21;3.50;99.90
1049;DHT22;513;51.444;7.196;2022-11-21T02:18:48;3.40;99.90
1049;DHT22;513;51.444;7.196;2022-11-21T02:21:21;3.50;99.90
1049;DHT22;513;51.444;7.196;2022-11-21T02:23:53;3.60;99.90
1049;DHT22;513;51.444;7.196;2022-11-21T02:26:22;3.30;99.90
1049;DHT22;513;51.444;7.196;2022-11-21T02:28:49;3.50;99.90
1049;DHT22;513;51.444;7.196;2022-11-21T02:31:16;3.70;99.90
1049;DHT22;513;51.444;7.196;2022-11-21T02:33:43;3.60;99.90
1049;DHT22;513;51.444;7.196;2022-11-21T02:36:32;3.60;99.90
1049;DHT22;513;51.444;7.196;2022-11-21T02:39:01;3.50;99.90
1049;DHT22;513;51.444;7.196;2022-11-21T02:41:30;3.50;99.90
1049;DHT22;513;51.444;7.196;2022-11-21T02:44:03;3.60;99.90
1049;DHT22;513;51.444;7.196;2022-11-21T02:46:32;3.60;99.90
1049;DHT22;513;51.444;7.196;2022-11-21T02:49:03;3.40;99.90
1049;DHT22;513;51.444;7.196;2022-11-21T02:51:31;3.60;99.90
1049;DHT22;513;51.444;7.196;2022-11-21T02:53:58;3.60;99.90
1049;DHT22;513;51.444;7.196;2022-11-21T02:56:25;3.70;99.90
1049;DHT22;513;51.444;7.196;2022-11-21T02:58:53;3.70;99.90
1049;DHT22;513;51.444;7.196;2022-11-21T03:01:19;3.80;99.90
1049;DHT22;513;51.444;7.196;2022-11-21T03:03:46;3.90;99.90
1049;DHT22;513;51.444;7.196;2022-11-21T03:06:13;3.90;99.90
1049;DHT22;513;51.444;7.196;2022-11-21T03:08:39;3.90;99.90
1049;DHT22;513;51.444;7.196;2022-11-21T03:11:06;3.80;99.90
1049;DHT22;513;51.444;7.196;2022-11-21T03:13:33;3.70;99.90
1049;DHT22;513;51.444;7.196;2022-11-21T03:16:01;3.50;99.90
1049;DHT22;513;51.444;7.196;2022-11-21T03:18:27;3.40;99.90
1049;DHT22;513;51.444;7.196;2022-11-21T03:20:54;3.40;99.90
1049;DHT22;513;51.444;7.196;2022-11-21T03:23:22;3.20;99.90
1049;DHT22;513;51.444;7.196;2022-11-21T03:25:49;3.40;99.90
1049;DHT22;513;51.444;7.196;2022-11-21T03:28:16;3.50;99.90
1049;DHT22;513;51.444;7.196;2022-11-21T03:30:42;3.60;99.90
1049;DHT22;513;51.444;7.196;2022-11-21T03:33:10;3.40;99.90
1049;DHT22;513;51.444;7.196;2022-11-21T03:35:37;3.40;99.90
1049;DHT22;513;51.444;7.196;2022-11-21T03:38:04;3.40;99.90
1049;DHT22;513;51.444;7.196;2022-11-21T03:40:31;3.50;99.90
1049;DHT22;513;51.444;7.196;2022-11-21T03:43:03;3.60;99.90
1049;DHT22;513;51.444;7.196;2022-11-21T03:45:29;3.70;99.90
1049;DHT22;513;51.444;7.196;2022-11-21T03:47:56;3.70;99.90
1049;DHT22;513;51.444;7.196;2022-11-21T03:50:24;3.80;99.90
1049;DHT22;513;51.444;7.196;2022-11-21T03:52:51;3.80;99.90
1049;DHT22;513;51.444;7.196;2022-11-21T03:55:17;3.80;99.90
1049;DHT22;513;51.444;7.196;2022-11-21T03:57:44;3.70;99.90
1049;DHT22;513;51.444;7.196;2022-11-21T04:00:12;3.80;99.90
1049;DHT22;513;51.444;7.196;2022-11-21T04:02:39;3.90;99.90
1049;DHT22;513;51.444;7.196;2022-11-21T04:05:06;3.90;99.90
1049;DHT22;513;51.444;7.196;2022-11-21T04:07:34;4.00;99.90
1049;DHT22;513;51.444;7.196;2022-11-21T04:10:00;3.90;99.90
1049;DHT22;513;51.444;7.196;2022-11-21T04:12:27;4.00;99.90
1049;DHT22;513;51.444;7.196;2022-11-21T04:14:54;3.90;99.90
1049;DHT22;513;51.444;7.196;2022-11-21T04:17:21;4.00;99.90
1049;DHT22;513;51.444;7.196;2022-11-21T04:19:47;4.00;99.90
1049;DHT22;513;51.444;7.196;2022-11-21T04:22:14;3.70;99.90
1049;DHT22;513;51.444;7.196;2022-11-21T04:24:42;3.60;99.90
1049;DHT22;513;51.444;7.196;2022-11-21T04:27:08;3.70;99.90
1049;DHT22;513;51.444;7.196;2022-11-21T04:29:35;3.80;99.90
1049;DHT22;513;51.444;7.196;2022-11-21T04:32:02;4.00;99.90
1049;DHT22;513;51.444;7.196;2022-11-21T04:34:28;4.00;99.90
1049;DHT22;513;51.444;7.196;2022-11-21T04:36:55;4.00;99.90
1049;DHT22;513;51.444;7.196;2022-11-21T04:39:22;4.00;99.90
1049;DHT22;513;51.444;7.196;2022-11-21T04:41:50;4.10;99.90
1049;DHT22;513;51.444;7.196;2022-11-21T04:44:16;4.20;99.90
1049;DHT22;513;51.444;7.196;2022-11-21T04:46:43;4.20;99.90
1049;DHT22;513;51.444;7.196;2022-11-21T04:49:10;3.90;99.90
1049;DHT22;513;51.444;7.196;2022-11-21T04:51:36;3.90;99.90
1049;DHT22;513;51.444;7.196;2022-11-21T04:54:03;3.80;99.90
1049;DHT22;513;51.444;7.196;2022-11-21T04:56:30;4.00;99.90
1049;DHT22;513;51.444;7.196;2022-11-21T04:58:58;4.10;99.90
1049;DHT22;513;51.444;7.196;2022-11-21T05:01:24;4.10;99.90
1049;DHT22;513;51.444;7.196;2022-11-21T05:03:51;4.00;99.90
1049;DHT22;513;51.444;7.196;2022-11-21T05:06:18;3.80;99.90
1049;DHT22;513;51.444;7.196;2022-11-21T05:08:45;3.90;99.90
1049;DHT22;513;51.444;7.196;2022-11-21T05:11:11;3.80;99.90
1049;DHT22;513;51.444;7.196;2022-11-21T05:13:57;3.80;99.90
1049;DHT22;513;51.444;7.196;2022-11-21T05:16:24;3.50;99.90
1049;DHT22;513;51.444;7.196;2022-11-21T05:18:50;3.60;99.90
1049;DHT22;513;51.444;7.196;2022-11-21T05:21:17;3.50;99.90
1049;DHT22;513;51.444;7.196;2022-11-21T05:23:43;3.60;99.90
1049;DHT22;513;51.444;7.196;2022-11-21T05:26:10;3.80;99.90
1049;DHT22;513;51.444;7.196;2022-11-21T05:28:37;4.00;99.90
1049;DHT22;513;51.444;7.196;2022-11-21T05:31:05;4.00;99.90
1049;DHT22;513;51.444;7.196;2022-11-21T05:33:31;4.20;99.90
1049;DHT22;513;51.444;7.196;2022-11-21T05:35:58;4.10;99.90
1049;DHT22;513;51.444;7.196;2022-11-21T05:38:25;4.20;99.90
1049;DHT22;513;51.444;7.196;2022-11-21T05:40:51;4.00;99.90
1049;DHT22;513;51.444;7.196;2022-11-21T05:43:18;3.90;99.90
1049;DHT22;513;51.444;7.196;2022-11-21T05:46:02;4.10;99.90
1049;DHT22;513;51.444;7.196;2022-11-21T05:48:30;4.20;99.90
1049;DHT22;513;51.444;7.196;2022-11-21T05:50:58;4.30;99.90
1049;DHT22;513;51.444;7.196;2022-11-21T05:53:25;4.50;99.90
1049;DHT22;513;51.444;7.196;2022-11-21T05:55:51;4.20;99.90
1049;DHT22;513;51.444;7.196;2022-11-21T05:58:18;3.80;99.90
1049;DHT22;513;51.444;7.196;2022-11-21T06:00:45;3.90;99.90
1049;DHT22;513;51.444;7.196;2022-11-21T06:03:12;4.00;99.90
1049;DHT22;513;51.444;7.196;2022-11-21T06:06:00;4.10;99.90
1049;DHT22;513;51.444;7.196;2022-11-21T06:08:27;4.30;99.90
1049;DHT22;513;51.444;7.196;2022-11-21T06:10:54;4.40;99.90
1049;DHT22;513;51.444;7.196;2022-11-21T06:13:21;4.30;99.90
1049;DHT22;513;51.444;7.196;2022-11-21T06:15:49;4.40;99.90
1049;DHT22;513;51.444;7.196;2022-11-21T06:18:16;4.50;99.90
1049;DHT22;513;51.444;7.196;2022-11-21T06:20:43;4.50;99.90
1049;DHT22;513;51.444;7.196;2022-11-21T06:23:11;4.40;99.90
1049;DHT22;513;51.444;7.196;2022-11-21T06:25:38;4.40;99.90
1049;DHT22;513;51.444;7.196;2022-11-21T06:28:04;4.50;99.90
1049;DHT22;513;51.444;7.196;2022-11-21T06:30:31;4.60;99.90
1049;DHT22;513;51.444;7.196;2022-11-21T06:32:58;4.60;99.90
1049;DHT22;513;51.444;7.196;2022-11-21T06:35:25;4.50;99.90
1049;DHT22;513;51.444;7.196;2022-11-21T06:37:51;4.60;99.90
1049;DHT22;513;51.444;7.196;2022-11-21T06:40:19;4.70;99.90
1049;DHT22;513;51.444;7.196;2022-11-21T06:42:46;4.70;99.90
1049;DHT22;513;51.444;7.196;2022-11-21T06:45:13;4.80;99.90
1049;DHT22;513;51.444;7.196;2022-11-21T06:47:39;4.70;99.90
1049;DHT22;513;51.444;7.196;2022-11-21T06:50:07;4.80;99.90
1049;DHT22;513;51.444;7.196;2022-11-21T06:52:34;4.80;99.90
1049;DHT22;513;51.444;7.196;2022-11-21T06:55:00;4.30;99.90
1049;DHT22;513;51.444;7.196;2022-11-21T06:57:28;4.40;99.90
1049;DHT22;513;51.444;7.196;2022-11-21T06:59:57;4.10;99.90
1049;DHT22;513;51.444;7.196;2022-11-21T07:02:23;4.20;99.90
1049;DHT22;513;51.444;7.196;2022-11-21T07:04:51;4.30;99.90
1049;DHT22;513;51.444;7.196;2022-11-21T07:07:18;4.00;99.90
1049;DHT22;513;51.444;7.196;2022-11-21T07:09:45;3.90;99.90
1049;DHT22;513;51.444;7.196;2022-11-21T07:12:12;4.00;99.90
1049;DHT22;513;51.444;7.196;2022-11-21T07:14:58;3.80;99.90
1049;DHT22;513;51.444;7.196;2022-11-21T07:17:25;4.00;99.90
1049;DHT22;513;51.444;7.196;2022-11-21T07:19:51;3.80;99.90
1049;DHT22;513;51.444;7.196;2022-11-21T07:22:18;3.80;99.90
1049;DHT22;513;51.444;7.196;2022-11-21T07:24:45;4.00;99.90
1049;DHT22;513;51.444;7.196;2022-11-21T07:27:11;4.10;99.90
1049;DHT22;513;51.444;7.196;2022-11-21T07:29:38;4.30;99.90
1049;DHT22;513;51.444;7.196;2022-11-21T07:32:06;4.60;99.90
1049;DHT22;513;51.444;7.196;2022-11-21T07:34:33;4.80;99.90
1049;DHT22;513;51.444;7.196;2022-11-21T07:36:59;5.40;99.90
1049;DHT22;513;51.444;7.196;2022-11-21T07:39:26;4.90;99.90
1049;DHT22;513;51.444;7.196;2022-11-21T07:41:53;4.90;99.90
1049;DHT22;513;51.444;7.196;2022-11-21T07:44:20;4.60;99.90
1049;DHT22;513;51.444;7.196;2022-11-21T07:46:47;4.70;99.90
1049;DHT22;513;51.444;7.196;2022-11-21T07:49:15;4.60;99.90
1049;DHT22;513;51.444;7.196;2022-11-21T07:51:42;5.00;99.90
1049;DHT22;513;51.444;7.196;2022-11-21T07:54:09;4.80;99.90
1049;DHT22;513;51.444;7.196;2022-11-21T07:56:35;4.80;99.90
1049;DHT22;513;51.444;7.196;2022-11-21T07:59:02;4.80;99.90
1049;DHT22;513;51.444;7.196;2022-11-21T08:01:29;4.90;99.90
1049;DHT22;513;51.444;7.196;2022-11-21T08:03:55;4.80;99.90
1049;DHT22;513;51.444;7.196;2022-11-21T08:06:23;4.80;99.90
1049;DHT22;513;51.444;7.196;2022-11-21T08:08:51;4.90;99.90
1049;DHT22;513;51.444;7.196;2022-11-21T08:11:18;4.70;99.90
1049;DHT22;513;51.444;7.196;2022-11-21T08:13:45;4.70;99.90
1049;DHT22;513;51.444;7.196;2022-11-21T08:16:11;4.80;99.90
1049;DHT22;513;51.444;7.196;2022-11-21T08:18:38;4.60;99.90
1049;DHT22;513;51.444;7.196;2022-11-21T08:21:05;4.80;99.90
1049;DHT22;513;51.444;7.196;2022-11-21T08:23:33;4.80;99.90
1049;DHT22;513;51.444;7.196;2022-11-21T08:26:00;4.80;99.90
1049;DHT22;513;51.444;7.196;2022-11-21T08:28:27;4.90;99.90
1049;DHT22;513;51.444;7.196;2022-11-21T08:30:53;5.00;99.90
1049;DHT22;513;51.444;7.196;2022-11-21T08:33:20;5.10;99.90
1049;DHT22;513;51.444;7.196;2022-11-21T08:35:47;5.00;99.90
1049;DHT22;513;51.444;7.196;2022-11-21T08:38:13;5.10;99.90
1049;DHT22;513;51.444;7.196;2022-11-21T08:40:41;5.00;99.90
1049;DHT22;513;51.444;7.196;2022-11-21T08:43:08;5.00;99.90
1049;DHT22;513;51.444;7.196;2022-11-21T08:45:36;4.90;99.90
1049;DHT22;513;51.444;7.196;2022-11-21T08:48:07;4.90;99.90
1049;DHT22;513;51.444;7.196;2022-11-21T08:50:34;4.80;99.90
1049;DHT22;513;51.444;7.196;2022-11-21T08:53:02;5.00;99.90
1049;DHT22;513;51.444;7.196;2022-11-21T08:55:28;5.20;99.90
1049;DHT22;513;51.444;7.196;2022-11-21T08:57:57;5.30;99.90
1049;DHT22;513;51.444;7.196;2022-11-21T09:00:24;5.30;99.90
1049;DHT22;513;51.444;7.196;2022-11-21T09:02:51;5.40;99.90
1049;DHT22;513;51.444;7.196;2022-11-21T09:05:17;5.50;99.90
1049;DHT22;513;51.444;7.196;2022-11-21T09:07:44;5.50;99.90
1049;DHT22;513;51.444;7.196;2022-11-21T09:10:11;5.40;99.90
1049;DHT22;513;51.444;7.196;2022-11-21T09:12:37;5.20;99.90
1049;DHT22;513;51.444;7.196;2022-11-21T09:15:08;5.20;99.90
1049;DHT22;513;51.444;7.196;2022-11-21T09:17:52;5.30;99.90
1049;DHT22;513;51.444;7.196;2022-11-21T09:20:37;5.10;99.90
1049;DHT22;513;51.444;7.196;2022-11-21T09:23:05;5.30;99.90
1049;DHT22;513;51.444;7.196;2022-11-21T09:25:32;5.30;99.90
1049;DHT22;513;51.444;7.196;2022-11-21T09:27:59;5.30;99.90
1049;DHT22;513;51.444;7.196;2022-11-21T09:30:28;5.50;99.90
1049;DHT22;513;51.444;7.196;2022-11-21T09:32:59;5.40;99.90
1049;DHT22;513;51.444;7.196;2022-11-21T09:35:26;5.40;99.90
1049;DHT22;513;51.444;7.196;2022-11-21T09:37:53;5.50;99.90
1049;DHT22;513;51.444;7.196;2022-11-21T09:40:20;5.40;99.90
1049;DHT22;513;51.444;7.196;2022-11-21T09:45:43;5.40;99.90
1049;DHT22;513;51.444;7.196;2022-11-21T09:48:13;5.70;99.90
1049;DHT22;513;51.444;7.196;2022-11-21T09:50:43;5.70;99.90
1049;DHT22;513;51.444;7.196;2022-11-21T09:53:15;5.80;99.90
1049;DHT22;513;51.444;7.196;2022-11-21T09:55:46;5.70;99.90
1049;DHT22;513;51.444;7.196;2022-11-21T09:58:23;5.90;99.90
1049;DHT22;513;51.444;7.196;2022-11-21T10:00:52;5.90;99.90
1049;DHT22;513;51.444;7.196;2022-11-21T10:03:21;6.00;99.90
1049;DHT22;513;51.444;7.196;2022-11-21T10:05:53;5.80;99.90
1049;DHT22;513;51.444;7.196;2022-11-21T10:08:28;6.00;99.90
1049;DHT22;513;51.444;7.196;2022-11-21T10:11:08;6.10;99.90
1049;DHT22;513;51.444;7.196;2022-11-21T10:13:45;6.20;99.90
1049;DHT22;513;51.444;7.196;2022-11-21T10:16:20;6.10;99.90
1049;DHT22;513;51.444;7.196;2022-11-21T10:19:12;6.20;99.90
1049;DHT22;513;51.444;7.196;2022-11-21T10:21:59;6.10;99.90
1049;DHT22;513;51.444;7.196;2022-11-21T10:24:41;6.20;99.90
1049;DHT22;513;51.444;7.196;2022-11-21T10:27:13;6.10;99.90
1049;DHT22;513;51.444;7.196;2022-11-21T10:29:43;6.30;99.90
1049;DHT22;513;51.444;7.196;2022-11-21T10:32:19;6.50;99.90
1049;DHT22;513;51.444;7.196;2022-11-21T10:34:48;6.70;99.90
1049;DHT22;513;51.444;7.196;2022-11-21T10:37:25;6.70;99.90
1049;DHT22;513;51.444;7.196;2022-11-21T10:39:53;6.60;99.90
1049;DHT22;513;51.444;7.196;2022-11-21T10:42:28;6.70;99.90
1049;DHT22;513;51.444;7.196;2022-11-21T10:44:59;6.90;99.90
1049;DHT22;513;51.444;7.196;2022-11-21T10:47:46;6.70;99.90
1049;DHT22;513;51.444;7.196;2022-11-21T10:50:38;6.50;99.90
1049;DHT22;513;51.444;7.196;2022-11-21T10:53:14;6.40;99.90
1049;DHT22;513;51.444;7.196;2022-11-21T10:56:01;6.40;99.90
1049;DHT22;513;51.444;7.196;2022-11-21T10:58:44;6.50;99.90
1049;DHT22;513;51.444;7.196;2022-11-21T11:01:25;6.50;99.90
1049;DHT22;513;51.444;7.196;2022-11-21T11:04:23;6.60;99.90
1049;DHT22;513;51.444;7.196;2022-11-21T11:06:51;6.80;99.90
1049;DHT22;513;51.444;7.196;2022-11-21T11:09:27;6.90;99.90
1049;DHT22;513;51.444;7.196;2022-11-21T11:12:20;7.00;99.90
1049;DHT22;513;51.444;7.196;2022-11-21T11:14:53;6.90;99.90
1049;DHT22;513;51.444;7.196;2022-11-21T11:17:28;6.90;99.90
1049;DHT22;513;51.444;7.196;2022-11-21T11:20:03;6.80;99.90
1049;DHT22;513;51.444;7.196;2022-11-21T11:22:29;6.80;99.90
1049;DHT22;513;51.444;7.196;2022-11-21T11:24:56;6.90;99.90
1049;DHT22;513;51.444;7.196;2022-11-21T11:27:26;6.80;99.90
1049;DHT22;513;51.444;7.196;2022-11-21T11:29:53;6.90;99.90
1049;DHT22;513;51.444;7.196;2022-11-21T11:32:20;6.90;99.90
1049;DHT22;513;51.444;7.196;2022-11-21T11:34:56;7.00;99.90
1049;DHT22;513;51.444;7.196;2022-11-21T11:37:31;7.00;99.90
1049;DHT22;513;51.444;7.196;2022-11-21T11:40:07;7.00;99.90
1049;DHT22;513;51.444;7.196;2022-11-21T11:43:07;7.00;99.90
1049;DHT22;513;51.444;7.196;2022-11-21T11:46:07;6.90;99.90
1049;DHT22;513;51.444;7.196;2022-11-21T11:48:56;7.00;99.90
1049;DHT22;513;51.444;7.196;2022-11-21T11:51:30;6.90;99.90
1049;DHT22;513;51.444;7.196;2022-11-21T11:54:05;7.00;99.90
1049;DHT22;513;51.444;7.196;2022-11-21T11:56:34;7.10;99.90
1049;DHT22;513;51.444;7.196;2022-11-21T11:59:09;6.90;99.90
1049;DHT22;513;51.444;7.196;2022-11-21T12:01:41;7.20;99.90
1049;DHT22;513;51.444;7.196;2022-11-21T12:04:12;7.40;99.90
1049;DHT22;513;51.444;7.196;2022-11-21T12:06:44;7.40;99.90
1049;DHT22;513;51.444;7.196;2022-11-21T12:09:18;7.20;99.90
1049;DHT22;513;51.444;7.196;2022-11-21T12:11:52;7.40;99.90
1049;DHT22;513;51.444;7.196;2022-11-21T12:14:49;7.20;99.90
1049;DHT22;513;51.444;7.196;2022-11-21T12:17:40;7.30;99.90
1049;DHT22;513;51.444;7.196;2022-11-21T12:20:17;7.40;99.90
1049;DHT22;513;51.444;7.196;2022-11-21T12:22:47;7.50;99.90
1049;DHT22;513;51.444;7.196;2022-11-21T12:25:18;7.20;99.90
1049;DHT22;513;51.444;7.196;2022-11-21T12:27:48;7.10;99.90
1049;DHT22;513;51.444;7.196;2022-11-21T12:33:18;7.10;99.90
1049;DHT22;513;51.444;7.196;2022-11-21T12:36:12;7.10;99.90
1049;DHT22;513;51.444;7.196;2022-11-21T12:38:58;7.20;99.90
1049;DHT22;513;51.444;7.196;2022-11-21T12:41:35;7.20;99.90
1049;DHT22;513;51.444;7.196;2022-11-21T12:44:33;7.10;99.90
1049;DHT22;513;51.444;7.196;2022-11-21T12:47:19;7.30;99.90
1049;DHT22;513;51.444;7.196;2022-11-21T12:49:56;7.30;99.90
1049;DHT22;513;51.444;7.196;2022-11-21T12:52:47;7.30;99.90
1049;DHT22;513;51.444;7.196;2022-11-21T12:55:35;7.40;99.90
1049;DHT22;513;51.444;7.196;2022-11-21T12:58:20;7.60;99.90
1049;DHT22;513;51.444;7.196;2022-11-21T13:00:55;7.50;99.90
1049;DHT22;513;51.444;7.196;2022-11-21T13:03:36;7.60;99.90
1049;DHT22;513;51.444;7.196;2022-11-21T13:06:05;7.70;99.90
1049;DHT22;513;51.444;7.196;2022-11-21T13:08:38;7.70;99.90
1049;DHT22;513;51.444;7.196;2022-11-21T13:11:10;7.80;99.90
1049;DHT22;513;51.444;7.196;2022-11-21T13:14:05;8.00;99.90
1049;DHT22;513;51.444;7.196;2022-11-21T13:16:35;7.90;99.90
1049;DHT22;513;51.444;7.196;2022-11-21T13:19:14;8.10;99.90
1049;DHT22;513;51.444;7.196;2022-11-21T13:21:44;8.20;99.90
1049;DHT22;513;51.444;7.196;2022-11-21T13:27:30;7.90;99.90
1049;DHT22;513;51.444;7.196;2022-11-21T13:30:20;7.80;99.90
1049;DHT22;513;51.444;7.196;2022-11-21T13:32:48;7.80;99.90
1049;DHT22;513;51.444;7.196;2022-11-21T13:38:31;8.00;99.90
1049;DHT22;513;51.444;7.196;2022-11-21T13:40:58;8.00;99.90
1049;DHT22;513;51.444;7.196;2022-11-21T13:43:42;7.90;99.90
1049;DHT22;513;51.444;7.196;2022-11-21T13:49:20;7.80;99.90
1049;DHT22;513;51.444;7.196;2022-11-21T13:51:52;7.70;99.90
1049;DHT22;513;51.444;7.196;2022-11-21T13:54:54;7.80;99.90
1049;DHT22;513;51.444;7.196;2022-11-21T13:57:34;7.80;99.90
1049;DHT22;513;51.444;7.196;2022-11-21T14:00:25;7.80;99.90
1049;DHT22;513;51.444;7.196;2022-11-21T14:03:30;7.80;99.90
1049;DHT22;513;51.444;7.196;2022-11-21T14:06:19;7.60;99.90
1049;DHT22;513;51.444;7.196;2022-11-21T14:09:04;7.70;99.90
1049;DHT22;513;51.444;7.196;2022-11-21T14:11:35;7.70;99.90
1049;DHT22;513;51.444;7.196;2022-11-21T14:14:03;7.70;99.90
1049;DHT22;513;51.444;7.196;2022-11-21T14:16:34;7.80;99.90
1049;DHT22;513;51.444;7.196;2022-11-21T14:19:02;7.80;99.90
1049;DHT22;513;51.444;7.196;2022-11-21T14:21:32;7.80;99.90
1049;DHT22;513;51.444;7.196;2022-11-21T14:24:01;7.60;99.90
1049;DHT22;513;51.444;7.196;2022-11-21T14:26:30;7.40;99.90
1049;DHT22;513;51.444;7.196;2022-11-21T14:29:15;7.50;99.90
1049;DHT22;513;51.444;7.196;2022-11-21T14:31:44;7.40;99.90
1049;DHT22;513;51.444;7.196;2022-11-21T14:34:11;7.50;99.90
1049;DHT22;513;51.444;7.196;2022-11-21T14:36:45;7.50;99.90
1049;DHT22;513;51.444;7.196;2022-11-21T14:39:14;7.50;99.90
1049;DHT22;513;51.444;7.196;2022-11-21T14:41:44;7.50;99.90
1049;DHT22;513;51.444;7.196;2022-11-21T14:44:17;7.50;99.90
1049;DHT22;513;51.444;7.196;2022-11-21T14:46:44;7.40;99.90
1049;DHT22;513;51.444;7.196;2022-11-21T14:49:18;7.30;99.90
1049;DHT22;513;51.444;7.196;2022-11-21T14:51:48;7.30;99.90
1049;DHT22;513;51.444;7.196;2022-11-21T14:54:18;7.20;99.90
1049;DHT22;513;51.444;7.196;2022-11-21T14:56:47;7.30;99.90
1049;DHT22;513;51.444;7.196;2022-11-21T14:59:19;7.20;99.90
1049;DHT22;513;51.444;7.196;2022-11-21T15:01:54;7.20;99.90
1049;DHT22;513;51.444;7.196;2022-11-21T15:04:26;7.20;99.90
1049;DHT22;513;51.444;7.196;2022-11-21T15:06:55;7.10;99.90
1049;DHT22;513;51.444;7.196;2022-11-21T15:09:22;7.10;99.90
1049;DHT22;513;51.444;7.196;2022-11-21T15:11:51;7.10;99.90
1049;DHT22;513;51.444;7.196;2022-11-21T15:14:23;7.00;99.90
1049;DHT22;513;51.444;7.196;2022-11-21T15:16:52;6.80;99.90
1049;DHT22;513;51.444;7.196;2022-11-21T15:19:21;6.70;99.90
1049;DHT22;513;51.444;7.196;2022-11-21T15:21:49;6.70;99.90
1049;DHT22;513;51.444;7.196;2022-11-21T15:24:28;6.70;99.90
1049;DHT22;513;51.444;7.196;2022-11-21T15:26:55;6.60;99.90
1049;DHT22;513;51.444;7.196;2022-11-21T15:29:22;6.70;99.90
1049;DHT22;513;51.444;7.196;2022-11-21T15:32:05;6.60;99.90
1049;DHT22;513;51.444;7.196;2022-11-21T15:34:31;6.60;99.90
1049;DHT22;513;51.444;7.196;2022-11-21T15:37:03;6.70;99.90
1049;DHT22;513;51.444;7.196;2022-11-21T15:39:32;6.70;99.90
1049;DHT22;513;51.444;7.196;2022-11-21T15:42:27;6.60;99.90
1049;DHT22;513;51.444;7.196;2022-11-21T15:44:58;6.50;99.90
1049;DHT22;513;51.444;7.196;2022-11-21T15:47:25;6.50;99.90
1049;DHT22;513;51.444;7.196;2022-11-21T15:49:51;6.50;99.90
1049;DHT22;513;51.444;7.196;2022-11-21T15:52:18;6.40;99.90
1049;DHT22;513;51.444;7.196;2022-11-21T15:54:46;6.50;99.90
1049;DHT22;513;51.444;7.196;2022-11-21T15:57:13;6.60;99.90
1049;DHT22;513;51.444;7.196;2022-11-21T15:59:39;6.60;99.90
1049;DHT22;513;51.444;7.196;2022-11-21T16:02:11;6.60;99.90
1049;DHT22;513;51.444;7.196;2022-11-21T16:04:37;6.50;99.90
1049;DHT22;513;51.444;7.196;2022-11-21T16:07:04;6.50;99.90
1049;DHT22;513;51.444;7.196;2022-11-21T16:09:31;6.40;99.90
1049;DHT22;513;51.444;7.196;2022-11-21T16:11:59;6.40;99.90
1049;DHT22;513;51.444;7.196;2022-11-21T16:14:25;6.30;99.90
1049;DHT22;513;51.444;7.196;2022-11-21T16:16:52;6.20;99.90
1049;DHT22;513;51.444;7.196;2022-11-21T16:19:19;6.20;99.90
1049;DHT22;513;51.444;7.196;2022-11-21T16:21:45;6.20;99.90
1049;DHT22;513;51.444;7.196;2022-11-21T16:24:12;6.10;99.90
1049;DHT22;513;51.444;7.196;2022-11-21T16:26:39;6.10;99.90
1049;DHT22;513;51.444;7.196;2022-11-21T16:29:09;6.10;99.90
1049;DHT22;513;51.444;7.196;2022-11-21T16:31:36;6.00;99.90
1049;DHT22;513;51.444;7.196;2022-11-21T16:34:03;6.10;99.90
1049;DHT22;513;51.444;7.196;2022-11-21T16:36:31;6.00;99.90
1049;DHT22;513;51.444;7.196;2022-11-21T16:38:58;6.00;99.90
1049;DHT22;513;51.444;7.196;2022-11-21T16:41:26;6.00;99.90
1049;DHT22;513;51.444;7.196;2022-11-21T16:43:54;6.00;99.90
1049;DHT22;513;51.444;7.196;2022-11-21T16:46:23;5.90;99.90
1049;DHT22;513;51.444;7.196;2022-11-21T16:48:57;6.00;99.90
1049;DHT22;513;51.444;7.196;2022-11-21T16:51:24;5.90;99.90
1049;DHT22;513;51.444;7.196;2022-11-21T16:53:51;5.90;99.90
1049;DHT22;513;51.444;7.196;2022-11-21T16:56:18;5.90;99.90
1049;DHT22;513;51.444;7.196;2022-11-21T16:58:45;5.90;99.90
1049;DHT22;513;51.444;7.196;2022-11-21T17:01:13;5.90;99.90
1049;DHT22;513;51.444;7.196;2022-11-21T17:03:42;5.80;99.90
1049;DHT22;513;51.444;7.196;2022-11-21T17:06:11;5.80;99.90
1049;DHT22;513;51.444;7.196;2022-11-21T17:08:38;5.80;99.90
1049;DHT22;513;51.444;7.196;2022-11-21T17:11:11;5.80;99.90